createdAt,value
2022-12-04T00:03:19.249Z,3.97
2022-12-04T00:06:44.458Z,3.96
2022-12-04T00:10:09.710Z,3.97
2022-12-04T00:13:34.962Z,3.95
2022-12-04T00:17:00.185Z,3.97
2022-12-04T00:20:25.463Z,3.97
2022-12-04T00:23:50.732Z,3.98
2022-12-04T00:27:16.018Z,3.96
2022-12-04T00:30:41.296Z,3.92
2022-12-04T00:34:08.172Z,3.93
2022-12-04T00:37:31.815Z,3.98
2022-12-04T00:40:57.071Z,4
2022-12-04T00:44:22.335Z,4.02
2022-12-04T00:47:47.619Z,4.03
2022-12-04T00:51:12.900Z,4.04
2022-12-04T00:54:38.203Z,4.05
2022-12-04T00:58:03.471Z,4.05
2022-12-04T01:01:28.820Z,4.06
2022-12-04T01:04:54.002Z,4.05
2022-12-04T01:08:19.331Z,3.98
2022-12-04T01:11:44.529Z,4
2022-12-04T01:15:09.777Z,4.01
2022-12-04T01:18:35.080Z,3.99
2022-12-04T01:22:05.580Z,3.99
2022-12-04T01:25:25.693Z,3.96
2022-12-04T01:28:50.959Z,3.89
2022-12-04T01:32:16.262Z,3.83
2022-12-04T01:35:41.461Z,3.78
2022-12-04T01:39:06.732Z,3.65
2022-12-04T01:42:32.062Z,3.53
2022-12-04T01:45:57.338Z,3.46
2022-12-04T01:49:22.595Z,3.38
2022-12-04T01:52:47.892Z,3.31
2022-12-04T01:56:13.160Z,3.24
2022-12-04T01:59:38.443Z,3.15
2022-12-04T02:03:03.723Z,3.07
2022-12-04T02:06:28.912Z,2.98
2022-12-04T02:09:54.428Z,2.85
2022-12-04T02:13:19.428Z,2.8
2022-12-04T02:16:44.764Z,2.81
2022-12-04T02:20:09.898Z,2.87
2022-12-04T02:23:35.165Z,2.93
2022-12-04T02:27:00.410Z,2.95
2022-12-04T02:30:25.735Z,2.93
2022-12-04T02:33:50.929Z,2.89
2022-12-04T02:37:16.137Z,2.82
2022-12-04T02:40:41.384Z,2.76
2022-12-04T02:44:06.618Z,2.72
2022-12-04T02:47:31.893Z,2.69
2022-12-04T02:50:57.160Z,2.68
2022-12-04T02:54:22.360Z,2.68
2022-12-04T02:57:47.611Z,2.69
2022-12-04T03:01:12.964Z,2.72
2022-12-04T03:04:38.179Z,2.76
2022-12-04T03:08:03.494Z,2.78
2022-12-04T03:11:28.703Z,2.75
2022-12-04T03:14:53.941Z,2.73
2022-12-04T03:18:19.195Z,2.72
2022-12-04T03:21:44.440Z,2.76
2022-12-04T03:25:09.719Z,2.8
2022-12-04T03:28:34.987Z,2.85
2022-12-04T03:32:00.252Z,2.91
2022-12-04T03:35:25.501Z,2.93
2022-12-04T03:38:50.750Z,2.96
2022-12-04T03:42:16.010Z,3.03
2022-12-04T03:45:41.255Z,3.07
2022-12-04T03:49:06.497Z,3.06
2022-12-04T03:52:31.766Z,3.05
2022-12-04T03:55:57.040Z,3.03
2022-12-04T03:59:22.329Z,3.04
2022-12-04T04:02:47.622Z,3.03
2022-12-04T04:06:12.809Z,3
2022-12-04T04:09:38.027Z,3
2022-12-04T04:13:03.272Z,3.02
2022-12-04T04:16:28.549Z,3.05
2022-12-04T04:19:54.273Z,3.09
2022-12-04T04:23:19.018Z,3.07
2022-12-04T04:26:44.267Z,3.06
2022-12-04T04:30:09.514Z,3.01
2022-12-04T04:33:34.786Z,2.97
2022-12-04T04:36:59.981Z,2.96
2022-12-04T04:40:25.211Z,2.95
2022-12-04T04:43:50.484Z,2.94
2022-12-04T04:47:15.754Z,2.9
2022-12-04T04:50:41.028Z,2.82
2022-12-04T04:54:06.239Z,2.76
2022-12-04T04:57:31.583Z,2.69
2022-12-04T05:00:56.744Z,2.6
2022-12-04T05:04:21.958Z,2.52
2022-12-04T05:07:47.295Z,2.47
2022-12-04T05:11:12.436Z,2.44
2022-12-04T05:14:37.660Z,2.43
2022-12-04T05:18:02.938Z,2.44
2022-12-04T05:21:28.180Z,2.45
2022-12-04T05:24:53.449Z,2.49
2022-12-04T05:28:18.663Z,2.49
2022-12-04T05:31:43.966Z,2.52
2022-12-04T05:35:11.246Z,2.53
2022-12-04T05:38:34.391Z,2.55
2022-12-04T05:41:59.644Z,2.57
2022-12-04T05:45:24.849Z,2.61
2022-12-04T05:48:50.099Z,2.7
2022-12-04T05:52:15.365Z,2.75
2022-12-04T05:55:40.670Z,2.8
2022-12-04T05:59:05.967Z,2.82
2022-12-04T06:02:31.309Z,2.88
2022-12-04T06:05:56.488Z,2.89
2022-12-04T06:09:21.747Z,2.88
2022-12-04T06:12:46.994Z,2.88
2022-12-04T06:16:13.150Z,2.87
2022-12-04T06:19:38.294Z,2.89
2022-12-04T06:23:03.551Z,2.86
2022-12-04T06:26:28.846Z,2.82
2022-12-04T06:29:54.452Z,2.75
2022-12-04T06:33:19.416Z,2.73
2022-12-04T06:36:44.648Z,2.71
2022-12-04T06:40:09.914Z,2.7
2022-12-04T06:43:35.194Z,2.71
2022-12-04T06:47:01.068Z,2.7
2022-12-04T06:50:25.712Z,2.69
2022-12-04T06:53:50.977Z,2.67
2022-12-04T06:57:16.363Z,2.69
2022-12-04T07:00:41.762Z,2.68
2022-12-04T07:04:06.960Z,2.71
2022-12-04T07:07:32.283Z,2.72
2022-12-04T07:10:59.246Z,2.72
2022-12-04T07:14:22.802Z,2.73
2022-12-04T07:17:48.054Z,2.72
2022-12-04T07:21:13.337Z,2.76
2022-12-04T07:24:38.641Z,2.81
2022-12-04T07:28:03.843Z,2.85
2022-12-04T07:31:29.221Z,2.86
2022-12-04T07:34:54.466Z,2.91
2022-12-04T07:38:19.738Z,2.97
2022-12-04T07:41:45.173Z,3
2022-12-04T07:45:10.484Z,3.07
2022-12-04T07:48:35.770Z,3.12
2022-12-04T07:52:01.044Z,3.18
2022-12-04T07:55:26.308Z,3.23
2022-12-04T07:58:51.578Z,3.28
2022-12-04T08:02:16.844Z,3.35
2022-12-04T08:05:42.123Z,3.4
2022-12-04T08:09:09.952Z,3.47
2022-12-04T08:12:32.623Z,3.49
2022-12-04T08:15:57.931Z,3.51
2022-12-04T08:19:23.142Z,3.61
2022-12-04T08:22:48.460Z,3.7
2022-12-04T08:26:13.721Z,3.76
2022-12-04T08:29:38.963Z,3.71
2022-12-04T08:33:04.270Z,3.7
2022-12-04T08:36:29.520Z,3.72
2022-12-04T08:39:55.151Z,3.74
2022-12-04T08:43:20.002Z,3.75
2022-12-04T08:46:45.280Z,3.82
2022-12-04T08:50:10.525Z,3.91
2022-12-04T08:53:35.732Z,3.99
2022-12-04T08:57:00.977Z,4.04
2022-12-04T09:00:26.232Z,4.06
2022-12-04T09:03:51.616Z,4.08
2022-12-04T09:07:16.773Z,4.08
2022-12-04T09:10:41.981Z,4.07
2022-12-04T09:14:07.283Z,4.15
2022-12-04T09:17:33.347Z,4.24
2022-12-04T09:20:59.025Z,4.3
2022-12-04T09:24:29.592Z,4.32
2022-12-04T09:27:59.959Z,4.38
2022-12-04T09:32:25.930Z,4.34
2022-12-04T09:35:59.583Z,4.25
2022-12-04T09:39:25.853Z,4.2
2022-12-04T09:42:52.218Z,4.14
2022-12-04T09:46:19.829Z,4.14
2022-12-04T09:49:46.158Z,4.17
2022-12-04T09:53:12.898Z,4.27
2022-12-04T09:56:39.222Z,4.38
2022-12-04T10:00:05.839Z,4.45
2022-12-04T10:03:31.309Z,4.43
2022-12-04T10:06:56.777Z,4.37
2022-12-04T10:10:22.037Z,4.23
2022-12-04T10:13:47.358Z,4.13
2022-12-04T10:17:12.635Z,4.08
2022-12-04T10:20:37.858Z,4.07
2022-12-04T10:24:03.079Z,4.04
2022-12-04T10:27:28.308Z,3.98
2022-12-04T10:30:53.784Z,3.93
2022-12-04T10:34:18.962Z,3.89
2022-12-04T10:37:44.156Z,3.88
2022-12-04T10:41:14.629Z,3.9
2022-12-04T10:44:34.620Z,3.95
2022-12-04T10:47:59.877Z,3.98
2022-12-04T10:51:25.146Z,4.03
2022-12-04T10:54:50.361Z,4.13
2022-12-04T10:58:15.611Z,4.27
2022-12-04T11:01:40.924Z,4.39
2022-12-04T11:05:06.073Z,4.47
2022-12-04T11:08:31.444Z,4.47
2022-12-04T11:11:56.555Z,4.44
2022-12-04T11:15:21.811Z,4.42
2022-12-04T11:18:47.063Z,4.44
2022-12-04T11:22:12.267Z,4.48
2022-12-04T11:25:37.514Z,4.5
2022-12-04T11:29:02.710Z,4.53
2022-12-04T11:32:27.954Z,4.6
2022-12-04T11:35:53.187Z,4.67
2022-12-04T11:39:18.440Z,4.71
2022-12-04T11:42:43.716Z,4.76
2022-12-04T11:46:08.985Z,4.78
2022-12-04T11:49:34.170Z,4.74
2022-12-04T11:52:59.424Z,4.74
2022-12-04T11:56:24.696Z,4.77
2022-12-04T11:59:49.951Z,4.74
2022-12-04T12:03:15.343Z,4.71
2022-12-04T12:06:40.448Z,4.67
2022-12-04T12:10:05.708Z,4.61
2022-12-04T12:13:30.988Z,4.64
2022-12-04T12:16:56.292Z,4.65
2022-12-04T12:20:21.503Z,4.64
2022-12-04T12:23:46.761Z,4.65
2022-12-04T12:27:12.036Z,4.65
2022-12-04T12:30:37.284Z,4.66
2022-12-04T12:34:02.545Z,4.68
2022-12-04T12:37:27.787Z,4.65
2022-12-04T12:40:53.021Z,4.6
2022-12-04T12:44:18.282Z,4.53
2022-12-04T12:47:43.557Z,4.44
2022-12-04T12:51:28.909Z,4.4
2022-12-04T12:54:34.080Z,4.39
2022-12-04T12:57:59.363Z,4.4
2022-12-04T13:01:24.676Z,4.36
2022-12-04T13:04:49.889Z,4.26
2022-12-04T13:08:15.214Z,4.19
2022-12-04T13:11:40.537Z,4.2
2022-12-04T13:15:05.769Z,4.23
2022-12-04T13:18:31.780Z,4.23
2022-12-04T13:21:57.082Z,4.17
2022-12-04T13:25:23.478Z,4.11
2022-12-04T13:28:50.256Z,4.07
2022-12-04T13:32:15.679Z,3.97
2022-12-04T13:35:43.404Z,3.84
2022-12-04T13:39:48.739Z,3.75
2022-12-04T13:44:47.028Z,3.75
2022-12-04T13:48:20.969Z,3.77
2022-12-04T13:52:15.935Z,3.8
2022-12-04T13:55:48.636Z,3.85
2022-12-04T13:59:32.386Z,3.92
2022-12-04T14:03:27.388Z,3.98
2022-12-04T14:07:26.376Z,3.99
2022-12-04T14:11:36.300Z,3.95
2022-12-04T14:15:45.497Z,3.97
2022-12-04T14:19:23.032Z,4
2022-12-04T14:22:48.485Z,4.02
2022-12-04T14:26:13.877Z,4.02
2022-12-04T14:29:39.349Z,4.01
2022-12-04T15:04:16.917Z,1.7
2022-12-04T15:07:42.379Z,2.73
2022-12-04T15:11:07.679Z,3.05
2022-12-04T15:14:33.073Z,3.32
2022-12-04T15:17:58.482Z,3.5
2022-12-04T15:21:23.940Z,3.61
2022-12-04T15:24:49.388Z,3.71
2022-12-04T15:28:15.081Z,3.78
2022-12-04T15:31:40.591Z,3.8
2022-12-04T15:35:05.954Z,3.79
2022-12-04T15:38:31.469Z,3.8
2022-12-04T15:41:56.797Z,3.86
2022-12-04T15:45:22.204Z,3.88
2022-12-04T15:48:48.343Z,3.89
2022-12-04T15:52:13.721Z,3.9
2022-12-04T15:55:39.279Z,3.93
2022-12-04T15:59:07.369Z,4
2022-12-04T16:02:32.772Z,4.03
2022-12-04T16:05:58.200Z,4.04
2022-12-04T16:09:23.605Z,4.03
2022-12-04T16:12:49.299Z,4.04
2022-12-04T16:16:15.428Z,4.05
2022-12-04T16:19:41.085Z,4.07
2022-12-04T16:23:06.606Z,4.08
2022-12-04T16:26:32.264Z,4.1
2022-12-04T16:29:57.833Z,4.1
2022-12-04T16:33:26.049Z,4.07
2022-12-04T16:36:55.376Z,4.05
2022-12-04T16:40:22.547Z,4.02
2022-12-04T16:43:48.142Z,4.05
2022-12-04T16:47:13.599Z,4.1
2022-12-04T16:50:39.470Z,4.16
2022-12-04T16:54:04.891Z,4.2
2022-12-04T16:57:31.985Z,4.23
2022-12-04T17:00:57.373Z,4.19
2022-12-04T17:04:22.786Z,4.15
2022-12-04T17:07:48.154Z,4.13
2022-12-04T17:11:13.419Z,4.13
2022-12-04T17:14:39.724Z,4.19
2022-12-04T17:18:10.650Z,4.2
2022-12-04T17:21:30.519Z,4.18
2022-12-04T17:24:57.828Z,4.16
2022-12-04T17:28:23.124Z,4.11
2022-12-04T17:31:48.574Z,4.11
2022-12-04T17:35:14.753Z,4.15
2022-12-04T17:38:40.171Z,4.2
2022-12-04T17:42:05.506Z,4.18
2022-12-04T17:45:30.969Z,4.2
2022-12-04T17:48:56.406Z,4.2
2022-12-04T17:52:21.809Z,4.24
2022-12-04T17:55:47.191Z,4.23
2022-12-04T17:59:12.574Z,4.17
2022-12-04T18:02:38.013Z,4.12
2022-12-04T18:06:04.087Z,4.11
2022-12-04T18:09:31.546Z,4.12
2022-12-04T18:12:57.100Z,4.16
2022-12-04T18:16:22.617Z,4.15
2022-12-04T18:19:47.888Z,4.22
2022-12-04T18:23:13.316Z,4.27
2022-12-04T18:26:38.752Z,4.32
2022-12-04T18:30:04.233Z,4.42
2022-12-04T18:33:29.624Z,4.52
2022-12-04T18:36:55.086Z,4.6
2022-12-04T18:40:20.486Z,4.66
2022-12-04T18:43:45.885Z,4.76
2022-12-04T18:47:11.368Z,4.88
2022-12-04T18:50:36.677Z,4.94
2022-12-04T18:54:02.085Z,4.97
2022-12-04T18:57:27.396Z,4.95
2022-12-04T19:00:52.882Z,4.94
2022-12-04T19:04:18.257Z,4.94
2022-12-04T19:07:43.738Z,4.88
2022-12-04T19:11:08.997Z,4.81
2022-12-04T19:14:34.405Z,4.76
2022-12-04T19:17:59.812Z,4.78
2022-12-04T19:21:25.299Z,4.8
2022-12-04T19:24:50.695Z,4.83
2022-12-04T19:28:16.085Z,4.84
2022-12-04T19:31:41.615Z,4.87
2022-12-04T19:35:06.917Z,4.94
2022-12-04T19:38:32.359Z,4.94
2022-12-04T19:41:57.714Z,4.97
2022-12-04T19:45:23.155Z,4.97
2022-12-04T19:48:48.570Z,4.96
2022-12-04T19:52:13.938Z,4.95
2022-12-04T19:55:39.358Z,4.93
2022-12-04T19:59:05.261Z,4.89
2022-12-04T20:02:30.727Z,4.91
2022-12-04T20:05:56.072Z,4.92
2022-12-04T20:09:13.130Z,4.93
2022-12-04T20:12:38.619Z,4.92
2022-12-04T20:16:04.033Z,4.93
2022-12-04T20:19:29.335Z,4.98
2022-12-04T20:22:54.670Z,5.04
2022-12-04T20:26:20.117Z,5.11
2022-12-04T20:29:45.513Z,5.14
2022-12-04T20:33:10.823Z,5.17
2022-12-04T20:36:36.167Z,5.23
2022-12-04T20:40:01.584Z,5.3
2022-12-04T20:43:26.902Z,5.32
2022-12-04T20:46:52.273Z,5.33
2022-12-04T20:50:17.518Z,5.37
2022-12-04T20:53:42.810Z,5.38
2022-12-04T20:57:08.136Z,5.44
2022-12-04T21:00:33.473Z,5.52
2022-12-04T21:03:58.831Z,5.54
2022-12-04T21:07:24.104Z,5.53
2022-12-04T21:10:49.401Z,5.47
2022-12-04T21:14:14.661Z,5.47
2022-12-04T21:17:39.924Z,5.5
2022-12-04T21:21:05.219Z,5.53
2022-12-04T21:24:30.446Z,5.56
2022-12-04T21:27:55.670Z,5.49
2022-12-04T21:31:21.050Z,5.4
2022-12-04T21:34:46.166Z,5.34
2022-12-04T21:38:11.460Z,5.32
2022-12-04T21:41:36.676Z,5.33
2022-12-04T21:45:01.922Z,5.38
2022-12-04T21:48:27.168Z,5.44
2022-12-04T21:51:59.705Z,5.47
2022-12-04T21:55:17.673Z,5.47
2022-12-04T21:58:42.905Z,5.45
2022-12-04T22:02:08.274Z,5.45
2022-12-04T22:05:33.418Z,5.44
2022-12-04T22:08:58.668Z,5.4
2022-12-04T22:12:48.308Z,5.39
2022-12-04T22:15:49.239Z,5.42
2022-12-04T22:19:14.446Z,5.4
2022-12-04T22:22:40.674Z,5.38
2022-12-04T22:26:05.919Z,5.34
2022-12-04T22:29:49.608Z,5.32
2022-12-04T22:32:56.390Z,5.35
2022-12-04T22:36:21.622Z,5.38
2022-12-04T22:39:46.863Z,5.42
2022-12-04T22:43:12.120Z,5.42
2022-12-04T22:46:37.462Z,5.41
2022-12-04T22:50:02.594Z,5.41
2022-12-04T22:53:27.822Z,5.42
2022-12-04T22:56:53.071Z,5.45
2022-12-04T23:00:18.321Z,5.5
2022-12-04T23:03:43.611Z,5.49
2022-12-04T23:07:08.824Z,5.45
2022-12-04T23:10:34.041Z,5.45
2022-12-04T23:13:59.280Z,5.4
2022-12-04T23:17:24.529Z,5.39
2022-12-04T23:20:49.786Z,5.42
2022-12-04T23:24:15.006Z,5.45
2022-12-04T23:27:40.255Z,5.47
2022-12-04T23:31:05.581Z,5.49
2022-12-04T23:34:30.748Z,5.49
2022-12-04T23:37:56.036Z,5.46
2022-12-04T23:41:21.258Z,5.46
2022-12-04T23:44:46.484Z,5.47
2022-12-04T23:48:11.746Z,5.52
2022-12-04T23:51:37.000Z,5.52
2022-12-04T23:55:02.251Z,5.49
2022-12-04T23:58:27.476Z,5.52
